Time;durP1;ratioP1;P1;durP2;ratioP2;P2;SDS_P1;SDS_P2;PMS_P1;PMS_P2;Temp;Humidity;BMP_temperature;BMP_pressure;BME280_temperature;BME280_humidity;BME280_pressure;Samples;Min_cycle;Max_cycle;Signal;HPM_P1;HPM_P2
2022/08/03 00:02:22;;;;;;;;;;;;;;;;;;6271134;22;19976;-88
2022/08/03 00:04:49;;;;;;;;;;;;;;;;;;6296649;22;19918;-89
2022/08/03 00:07:15;;;;;;;;;;;;;;;;;;6269300;22;19915;-89
2022/08/03 00:09:42;;;;;;;;;;;;;;;;;;6269879;22;19911;-89
2022/08/03 00:12:08;;;;;;;;;;;;;;;;;;6239780;22;19914;-89
2022/08/03 00:14:35;;;;;;;;;;;;;;;;;;6243291;22;19997;-90
2022/08/03 00:17:02;;;;;;;;;;;;;;;;;;6291999;22;19958;-89
2022/08/03 00:19:31;;;;;;;;;;;;;;;;;;6267117;22;19910;-89
2022/08/03 00:21:59;;;;;;;;;;;;;;;;;;6238223;22;19921;-90
2022/08/03 00:24:25;;;;;;;;;;;;;;;;;;6289286;22;19919;-90
2022/08/03 00:26:51;;;;;;;;;;;;;;;;;;6294289;22;20184;-90
2022/08/03 00:29:18;;;;;;;;;;;;;;;;;;6289980;22;20394;-89
2022/08/03 00:31:45;;;;;;;;;;;;;;;;;;6268706;22;20410;-89
2022/08/03 00:34:12;;;;;;;;;;;;;;;;;;6289998;22;19915;-89
2022/08/03 00:36:39;;;;;;;;;;;;;;;;;;6267211;22;19929;-89
2022/08/03 00:39:07;;;;;;;;;;;;;;;;;;6269618;22;19915;-89
2022/08/03 00:41:34;;;;;;;;;;;;;;;;;;6267085;22;19921;-89
2022/08/03 00:44:03;;;;;;;;;;;;;;;;;;6291181;22;19953;-89
2022/08/03 00:46:30;;;;;;;;;;;;;;;;;;6296188;22;19945;-88
2022/08/03 00:48:57;;;;;;;;;;;;;;;;;;6293207;22;20318;-89
2022/08/03 00:51:25;;;;;;;;;;;;;;;;;;6268787;22;19911;-89
2022/08/03 00:53:53;;;;;;;;;;;;;;;;;;6268106;22;19946;-89
2022/08/03 00:56:19;;;;;;;;;;;;;;;;;;6291220;22;19942;-89
2022/08/03 00:58:48;;;;;;;;;;;;;;;;;;6241411;22;19921;-89
2022/08/03 01:01:16;;;;;;;;;;;;;;;;;;6241426;22;20898;-89
2022/08/03 01:03:42;;;;;;;;;;;;;;;;;;6266266;22;20009;-89
2022/08/03 01:06:11;;;;;;;;;;;;;;;;;;6262145;22;20023;-89
2022/08/03 01:08:42;;;;;;;;;;;;;;;;;;6235248;22;19922;-89
2022/08/03 01:11:11;;;;;;;;;;;;;;;;;;6230654;22;20398;-89
2022/08/03 01:13:40;;;;;;;;;;;;;;;;;;6260530;22;19918;-89
2022/08/03 01:16:07;;;;;;;;;;;;;;;;;;6264298;22;20359;-89
2022/08/03 01:18:34;;;;;;;;;;;;;;;;;;6269036;22;20009;-89
2022/08/03 01:21:02;;;;;;;;;;;;;;;;;;6238382;22;19921;-89
2022/08/03 01:23:28;;;;;;;;;;;;;;;;;;6292423;22;20009;-90
2022/08/03 01:25:56;;;;;;;;;;;;;;;;;;6264308;22;20251;-89
2022/08/03 01:28:23;;;;;;;;;;;;;;;;;;6243449;22;19981;-89
2022/08/03 01:30:50;;;;;;;;;;;;;;;;;;6291943;22;20336;-89
2022/08/03 01:33:20;;;;;;;;;;;;;;;;;;6216237;22;19946;-89
2022/08/03 01:35:49;;;;;;;;;;;;;;;;;;6267294;22;20250;-89
2022/08/03 01:38:15;;;;;;;;;;;;;;;;;;6240727;22;19993;-89
2022/08/03 01:40:45;;;;;;;;;;;;;;;;;;6267140;22;20308;-89
2022/08/03 01:43:13;;;;;;;;;;;;;;;;;;6269289;22;19911;-89
2022/08/03 01:45:41;;;;;;;;;;;;;;;;;;6268143;22;19931;-88
2022/08/03 01:48:08;;;;;;;;;;;;;;;;;;6242239;22;19910;-89
2022/08/03 01:50:35;;;;;;;;;;;;;;;;;;6272629;22;19914;-89
2022/08/03 01:53:02;;;;;;;;;;;;;;;;;;6269087;22;19984;-89
2022/08/03 01:55:31;;;;;;;;;;;;;;;;;;6271354;22;19914;-89
2022/08/03 01:58:06;;;;;;;;;;;;;;;;;;6245594;22;19915;-90
2022/08/03 02:00:46;;;;;;;;;;;;;;;;;;6298998;22;19915;-89
2022/08/03 02:03:14;;;;;;;;;;;;;;;;;;6295613;22;19910;-90
2022/08/03 02:05:42;;;;;;;;;;;;;;;;;;6272143;22;20339;-89
2022/08/03 02:08:18;;;;;;;;;;;;;;;;;;6271553;22;21002;-89
2022/08/03 02:10:46;;;;;;;;;;;;;;;;;;6295256;22;19915;-89
2022/08/03 02:13:13;;;;;;;;;;;;;;;;;;6267163;22;19988;-89
2022/08/03 02:15:39;;;;;;;;;;;;;;;;;;6270950;22;20292;-90
2022/08/03 02:18:07;;;;;;;;;;;;;;;;;;6294287;22;19919;-89
2022/08/03 02:20:36;;;;;;;;;;;;;;;;;;6267385;22;19914;-89
2022/08/03 02:23:05;;;;;;;;;;;;;;;;;;6262465;22;19990;-89
2022/08/03 02:25:31;;;;;;;;;;;;;;;;;;6241094;22;19921;-90
2022/08/03 02:28:07;;;;;;;;;;;;;;;;;;6292310;22;19915;-89
2022/08/03 02:30:38;;;;;;;;;;;;;;;;;;6242771;22;19911;-90
2022/08/03 02:33:04;;;;;;;;;;;;;;;;;;6264891;22;20251;-89
2022/08/03 02:35:30;;;;;;;;;;;;;;;;;;6264502;22;19918;-90
2022/08/03 02:37:56;;;;;;;;;;;;;;;;;;6264066;22;19971;-88
2022/08/03 02:40:22;;;;;;;;;;;;;;;;;;6291903;22;20325;-89
2022/08/03 02:42:49;;;;;;;;;;;;;;;;;;6267680;22;19919;-89
2022/08/03 02:45:15;;;;;;;;;;;;;;;;;;6264949;22;20154;-88
2022/08/03 02:47:41;;;;;;;;;;;;;;;;;;6267638;22;19914;-88
2022/08/03 02:50:07;;;;;;;;;;;;;;;;;;6261755;22;19941;-90
2022/08/03 02:52:33;;;;;;;;;;;;;;;;;;6264864;22;20312;-90
2022/08/03 02:54:59;;;;;;;;;;;;;;;;;;6262038;22;19919;-89
2022/08/03 02:57:26;;;;;;;;;;;;;;;;;;6263364;22;19993;-89
2022/08/03 02:59:52;;;;;;;;;;;;;;;;;;6266005;22;19941;-90
2022/08/03 03:02:18;;;;;;;;;;;;;;;;;;6264158;22;19915;-89
2022/08/03 03:04:43;;;;;;;;;;;;;;;;;;6264973;22;19918;-89
2022/08/03 03:07:09;;;;;;;;;;;;;;;;;;6260825;22;19919;-90
2022/08/03 03:09:35;;;;;;;;;;;;;;;;;;6264457;22;19914;-89
2022/08/03 03:12:01;;;;;;;;;;;;;;;;;;6263844;22;20097;-89
2022/08/03 03:14:28;;;;;;;;;;;;;;;;;;6291490;22;19915;-90
2022/08/03 03:16:54;;;;;;;;;;;;;;;;;;6238257;22;19922;-89
2022/08/03 03:19:20;;;;;;;;;;;;;;;;;;6262295;22;19915;-89
2022/08/03 03:21:46;;;;;;;;;;;;;;;;;;6262651;22;19914;-89
2022/08/03 03:24:12;;;;;;;;;;;;;;;;;;6288184;22;20284;-89
2022/08/03 03:26:38;;;;;;;;;;;;;;;;;;6263471;22;19914;-89
2022/08/03 03:29:04;;;;;;;;;;;;;;;;;;6237733;22;19915;-89
2022/08/03 03:31:30;;;;;;;;;;;;;;;;;;6290846;22;20056;-89
2022/08/03 03:33:56;;;;;;;;;;;;;;;;;;6263625;22;19911;-90
2022/08/03 03:36:22;;;;;;;;;;;;;;;;;;6264826;22;20391;-89
2022/08/03 03:38:48;;;;;;;;;;;;;;;;;;6263804;22;19914;-89
2022/08/03 03:41:14;;;;;;;;;;;;;;;;;;6262923;22;20632;-90
2022/08/03 03:43:40;;;;;;;;;;;;;;;;;;6269708;22;20224;-89
2022/08/03 03:46:06;;;;;;;;;;;;;;;;;;6266590;22;20235;-89
2022/08/03 03:48:32;;;;;;;;;;;;;;;;;;6269324;22;19911;-89
2022/08/03 03:50:58;;;;;;;;;;;;;;;;;;6265666;22;19921;-89
2022/08/03 03:53:24;;;;;;;;;;;;;;;;;;6293468;22;19918;-90
2022/08/03 03:55:50;;;;;;;;;;;;;;;;;;6294941;22;20283;-89
2022/08/03 03:58:16;;;;;;;;;;;;;;;;;;6266859;22;19994;-88
2022/08/03 04:00:43;;;;;;;;;;;;;;;;;;6295188;22;19942;-89
2022/08/03 04:03:09;;;;;;;;;;;;;;;;;;6240873;22;19930;-89
2022/08/03 04:11:04;;;;;;;;;;;;;;;;;;6266965;22;20308;-89
2022/08/03 04:13:31;;;;;;;;;;;;;;;;;;6269234;22;20001;-88
2022/08/03 04:15:57;;;;;;;;;;;;;;;;;;6239530;22;20255;-89
2022/08/03 04:18:23;;;;;;;;;;;;;;;;;;6264883;22;19925;-88
2022/08/03 04:20:49;;;;;;;;;;;;;;;;;;6245081;22;19993;-89
2022/08/03 04:23:15;;;;;;;;;;;;;;;;;;6266074;22;19915;-87
2022/08/03 04:25:41;;;;;;;;;;;;;;;;;;6263951;22;20242;-88
2022/08/03 04:28:07;;;;;;;;;;;;;;;;;;6261692;22;19915;-89
2022/08/03 04:30:33;;;;;;;;;;;;;;;;;;6263548;22;20020;-88
2022/08/03 04:32:59;;;;;;;;;;;;;;;;;;6259058;22;19918;-89
2022/08/03 04:35:25;;;;;;;;;;;;;;;;;;6259843;22;19982;-88
2022/08/03 04:37:50;;;;;;;;;;;;;;;;;;6288142;22;19926;-88
2022/08/03 04:40:16;;;;;;;;;;;;;;;;;;6286377;22;20069;-88
2022/08/03 04:42:42;;;;;;;;;;;;;;;;;;6290058;22;20315;-88
2022/08/03 04:45:08;;;;;;;;;;;;;;;;;;6262082;22;19915;-89
2022/08/03 04:47:34;;;;;;;;;;;;;;;;;;6290027;22;19969;-90
2022/08/03 04:50:00;;;;;;;;;;;;;;;;;;6263561;22;19954;-89
2022/08/03 04:52:26;;;;;;;;;;;;;;;;;;6266450;22;19915;-89
2022/08/03 04:54:52;;;;;;;;;;;;;;;;;;6268421;22;20037;-89
2022/08/03 04:57:19;;;;;;;;;;;;;;;;;;6265276;22;19997;-90
2022/08/03 04:59:45;;;;;;;;;;;;;;;;;;6293251;22;19911;-89
2022/08/03 05:02:11;;;;;;;;;;;;;;;;;;6262657;22;19946;-89
2022/08/03 05:04:40;;;;;;;;;;;;;;;;;;6287993;22;19922;-88
2022/08/03 05:07:06;;;;;;;;;;;;;;;;;;6260192;22;19914;-89
2022/08/03 05:09:32;;;;;;;;;;;;;;;;;;6289775;22;20402;-89
2022/08/03 05:11:58;;;;;;;;;;;;;;;;;;6267418;22;19914;-90
2022/08/03 05:14:23;;;;;;;;;;;;;;;;;;6295206;22;19922;-89
2022/08/03 05:16:49;;;;;;;;;;;;;;;;;;6268723;22;19949;-89
2022/08/03 05:19:15;;;;;;;;;;;;;;;;;;6290935;22;19946;-89
2022/08/03 05:21:41;;;;;;;;;;;;;;;;;;6295583;22;19911;-89
2022/08/03 05:24:07;;;;;;;;;;;;;;;;;;6263514;22;19915;-89
2022/08/03 05:26:33;;;;;;;;;;;;;;;;;;6291864;22;19911;-89
2022/08/03 05:28:59;;;;;;;;;;;;;;;;;;6263841;22;19969;-89
2022/08/03 05:31:25;;;;;;;;;;;;;;;;;;6266510;22;19915;-89
2022/08/03 05:33:51;;;;;;;;;;;;;;;;;;6291932;22;19985;-89
2022/08/03 05:36:17;;;;;;;;;;;;;;;;;;6263616;22;20369;-89
2022/08/03 05:38:43;;;;;;;;;;;;;;;;;;6233794;22;19974;-89
2022/08/03 05:41:09;;;;;;;;;;;;;;;;;;6212059;22;19919;-89
2022/08/03 05:43:35;;;;;;;;;;;;;;;;;;6212136;22;19911;-89
2022/08/03 05:46:01;;;;;;;;;;;;;;;;;;6237980;22;19922;-89
2022/08/03 05:48:27;;;;;;;;;;;;;;;;;;6237513;22;20343;-89
2022/08/03 05:50:53;;;;;;;;;;;;;;;;;;6262643;22;19914;-88
2022/08/03 05:53:19;;;;;;;;;;;;;;;;;;6211443;22;19986;-88
2022/08/03 05:55:45;;;;;;;;;;;;;;;;;;6265108;22;20320;-88
2022/08/03 05:58:11;;;;;;;;;;;;;;;;;;6210512;22;19915;-88
2022/08/03 06:00:38;;;;;;;;;;;;;;;;;;6213090;22;20290;-88
2022/08/03 06:03:04;;;;;;;;;;;;;;;;;;6263132;22;19950;-87
2022/08/03 06:05:35;;;;;;;;;;;;;;;;;;6213554;22;19937;-88
2022/08/03 06:08:01;;;;;;;;;;;;;;;;;;6236535;22;19915;-87
2022/08/03 06:10:28;;;;;;;;;;;;;;;;;;6213900;22;20005;-88
2022/08/03 06:12:54;;;;;;;;;;;;;;;;;;6262284;22;20400;-87
2022/08/03 06:15:21;;;;;;;;;;;;;;;;;;6257244;22;19927;-87
2022/08/03 06:17:50;;;;;;;;;;;;;;;;;;6261621;22;19919;-88
2022/08/03 06:20:25;;;;;;;;;;;;;;;;;;6261785;22;19922;-86
2022/08/03 06:22:51;;;;;;;;;;;;;;;;;;6261033;22;19915;-87
2022/08/03 06:25:18;;;;;;;;;;;;;;;;;;6258507;22;19975;-87
2022/08/03 06:27:44;;;;;;;;;;;;;;;;;;6234335;22;19915;-87
2022/08/03 06:30:10;;;;;;;;;;;;;;;;;;6256409;22;19915;-87
2022/08/03 06:32:36;;;;;;;;;;;;;;;;;;6262333;22;19915;-87
2022/08/03 06:35:02;;;;;;;;;;;;;;;;;;6256381;22;20324;-86
2022/08/03 06:37:28;;;;;;;;;;;;;;;;;;6259533;22;19926;-87
2022/08/03 06:39:54;;;;;;;;;;;;;;;;;;6274474;22;19919;-87
2022/08/03 06:42:20;;;;;;;;;;;;;;;;;;6261329;22;19914;-87
2022/08/03 06:44:46;;;;;;;;;;;;;;;;;;6290145;22;20279;-90
2022/08/03 06:47:12;;;;;;;;;;;;;;;;;;6287602;22;20334;-89
2022/08/03 06:49:39;;;;;;;;;;;;;;;;;;6264262;22;19911;-89
2022/08/03 06:52:05;;;;;;;;;;;;;;;;;;6261590;22;19926;-89
2022/08/03 06:54:31;;;;;;;;;;;;;;;;;;6235990;22;19941;-88
2022/08/03 06:56:57;;;;;;;;;;;;;;;;;;6260335;22;19919;-90
2022/08/03 06:59:23;;;;;;;;;;;;;;;;;;6265207;22;19910;-89
2022/08/03 07:01:49;;;;;;;;;;;;;;;;;;6265300;22;19919;-90
2022/08/03 07:04:15;;;;;;;;;;;;;;;;;;6284454;22;20562;-90
2022/08/03 07:06:41;;;;;;;;;;;;;;;;;;6261517;22;19915;-90
2022/08/03 07:09:07;;;;;;;;;;;;;;;;;;6262504;22;20043;-90
2022/08/03 07:11:33;;;;;;;;;;;;;;;;;;6264552;22;19915;-90
2022/08/03 07:13:59;;;;;;;;;;;;;;;;;;6263014;22;19918;-90
2022/08/03 07:16:25;;;;;;;;;;;;;;;;;;6262317;22;20013;-90
2022/08/03 07:18:51;;;;;;;;;;;;;;;;;;6260601;22;20035;-89
2022/08/03 07:21:17;;;;;;;;;;;;;;;;;;6286436;22;20462;-89
2022/08/03 07:23:43;;;;;;;;;;;;;;;;;;6237088;22;20278;-90
2022/08/03 07:26:09;;;;;;;;;;;;;;;;;;6235926;22;19937;-90
2022/08/03 07:28:35;;;;;;;;;;;;;;;;;;6264852;22;19922;-90
2022/08/03 07:31:01;;;;;;;;;;;;;;;;;;6260002;22;20009;-90
2022/08/03 07:33:27;;;;;;;;;;;;;;;;;;6263556;22;20319;-89
2022/08/03 07:35:53;;;;;;;;;;;;;;;;;;6266651;22;20327;-89
2022/08/03 07:38:19;;;;;;;;;;;;;;;;;;6261786;22;20123;-89
2022/08/03 07:40:45;;;;;;;;;;;;;;;;;;6291994;22;20324;-91
2022/08/03 07:43:11;;;;;;;;;;;;;;;;;;6285782;22;19915;-90
2022/08/03 07:45:37;;;;;;;;;;;;;;;;;;6263452;22;19937;-90
2022/08/03 07:48:04;;;;;;;;;;;;;;;;;;6260285;22;19941;-89
2022/08/03 07:50:30;;;;;;;;;;;;;;;;;;6262825;22;19914;-90
2022/08/03 07:52:56;;;;;;;;;;;;;;;;;;6289649;22;19914;-90
2022/08/03 07:55:23;;;;;;;;;;;;;;;;;;6238018;22;19915;-90
2022/08/03 07:57:49;;;;;;;;;;;;;;;;;;6263036;22;20394;-90
2022/08/03 08:00:15;;;;;;;;;;;;;;;;;;6261922;22;19915;-90
2022/08/03 08:02:41;;;;;;;;;;;;;;;;;;6238857;22;19915;-91
2022/08/03 08:05:07;;;;;;;;;;;;;;;;;;6263336;22;19921;-90
2022/08/03 08:07:33;;;;;;;;;;;;;;;;;;6236167;22;19922;-90
2022/08/03 08:09:59;;;;;;;;;;;;;;;;;;6278663;22;20259;-90
2022/08/03 08:12:25;;;;;;;;;;;;;;;;;;6260153;22;19953;-90
2022/08/03 08:14:51;;;;;;;;;;;;;;;;;;6284266;22;20309;-90
2022/08/03 08:17:18;;;;;;;;;;;;;;;;;;6256143;22;20421;-90
2022/08/03 08:19:44;;;;;;;;;;;;;;;;;;6234211;22;19911;-90
2022/08/03 08:22:10;;;;;;;;;;;;;;;;;;6279417;22;20327;-90
2022/08/03 08:24:36;;;;;;;;;;;;;;;;;;6231398;22;19949;-91
2022/08/03 08:27:02;;;;;;;;;;;;;;;;;;6284242;22;19915;-90
2022/08/03 08:29:28;;;;;;;;;;;;;;;;;;6261378;22;19942;-90
2022/08/03 08:32:20;;;;;;;;;;;;;;;;;;6283066;22;20123;-90
2022/08/03 08:35:10;;;;;;;;;;;;;;;;;;6191153;23;19916;-90
2022/08/03 08:37:36;;;;;;;;;;;;;;;;;;6165247;23;20025;-90
2022/08/03 08:40:05;;;;;;;;;;;;;;;;;;6153884;23;20094;-90
2022/08/03 08:42:38;;;;;;;;;;;;;;;;;;6190133;23;19958;-90
2022/08/03 08:45:05;;;;;;;;;;;;;;;;;;6163096;23;20292;-90
2022/08/03 08:47:31;;;;;;;;;;;;;;;;;;6144796;23;19935;-90
2022/08/03 08:50:09;;;;;;;;;;;;;;;;;;6192370;23;19915;-85
2022/08/03 08:52:44;;;;;;;;;;;;;;;;;;6140423;23;19918;-90
2022/08/03 08:55:22;;;;;;;;;;;;;;;;;;6187157;23;19920;-90
2022/08/03 08:57:56;;;;;;;;;;;;;;;;;;6134404;23;20341;-90
2022/08/03 09:00:37;;;;;;;;;;;;;;;;;;6112456;23;19966;-89
2022/08/03 09:03:09;;;;;;;;;;;;;;;;;;6110413;23;19927;-90
2022/08/03 09:05:37;;;;;;;;;;;;;;;;;;6134783;23;19923;-91
2022/08/03 09:08:09;;;;;;;;;;;;;;;;;;6177194;23;19916;-91
2022/08/03 09:10:41;;;;;;;;;;;;;;;;;;6184035;23;19915;-90
2022/08/03 09:13:22;;;;;;;;;;;;;;;;;;6173536;23;20113;-90
2022/08/03 09:15:53;;;;;;;;;;;;;;;;;;6190261;23;19986;-90
2022/08/03 09:18:22;;;;;;;;;;;;;;;;;;6183874;23;19916;-90
2022/08/03 09:23:46;;;;;;;;;;;;;;;;;;6194068;23;19954;-91
2022/08/03 09:26:32;;;;;;;;;;;;;;;;;;6201234;23;19938;-89
2022/08/03 09:28:58;;;;;;;;;;;;;;;;;;6181803;22;20351;-90
2022/08/03 09:37:42;;;;;;;;;;;;;;;;;;6203373;22;19919;-90
2022/08/03 09:40:24;;;;;;;;;;;;;;;;;;6201435;22;19919;-90
2022/08/03 09:42:51;;;;;;;;;;;;;;;;;;6205234;22;19915;-90
2022/08/03 09:45:34;;;;;;;;;;;;;;;;;;6233724;22;19958;-91
2022/08/03 09:48:03;;;;;;;;;;;;;;;;;;6228405;22;20278;-90
2022/08/03 09:50:34;;;;;;;;;;;;;;;;;;6229103;22;19985;-90
2022/08/03 09:53:00;;;;;;;;;;;;;;;;;;6262831;22;19933;-90
2022/08/03 09:55:41;;;;;;;;;;;;;;;;;;6301887;22;19979;-90
2022/08/03 09:58:29;;;;;;;;;;;;;;;;;;6265962;22;19919;-89
2022/08/03 10:01:13;;;;;;;;;;;;;;;;;;6287066;22;19911;-91
2022/08/03 10:03:50;;;;;;;;;;;;;;;;;;6260424;22;20240;-91
2022/08/03 10:09:30;;;;;;;;;;;;;;;;;;6246447;22;19914;-90
2022/08/03 10:11:58;;;;;;;;;;;;;;;;;;6263467;22;20296;-90
2022/08/03 10:14:41;;;;;;;;;;;;;;;;;;6235848;22;19911;-90
2022/08/03 10:17:07;;;;;;;;;;;;;;;;;;6256682;22;19977;-92
2022/08/03 10:19:47;;;;;;;;;;;;;;;;;;6262566;22;19915;-90
2022/08/03 10:22:34;;;;;;;;;;;;;;;;;;6256723;22;19921;-92
2022/08/03 10:28:08;;;;;;;;;;;;;;;;;;6255915;22;19915;-92
2022/08/03 10:30:40;;;;;;;;;;;;;;;;;;6261627;22;19915;-93
2022/08/03 10:33:14;;;;;;;;;;;;;;;;;;6284246;22;20002;-90
2022/08/03 10:36:15;;;;;;;;;;;;;;;;;;;;;
2022/08/03 10:41:45;;;;;;;;;;;;;;;;;;6236536;22;19988;-91
2022/08/03 10:44:12;;;;;;;;;;;;;;;;;;6252063;22;19947;-91
2022/08/03 10:46:38;;;;;;;;;;;;;;;;;;6212073;22;19915;-91
2022/08/03 10:49:04;;;;;;;;;;;;;;;;;;6234114;22;20341;-91
2022/08/03 10:51:31;;;;;;;;;;;;;;;;;;6233776;22;19915;-90
2022/08/03 10:54:00;;;;;;;;;;;;;;;;;;6203047;22;19954;-91
2022/08/03 10:59:16;;;;;;;;;;;;;;;;;;6221939;22;19927;-90
2022/08/03 11:01:42;;;;;;;;;;;;;;;;;;6224351;22;19990;-92
2022/08/03 11:04:08;;;;;;;;;;;;;;;;;;6221453;22;20388;-92
2022/08/03 11:06:42;;;;;;;;;;;;;;;;;;6200728;22;19915;-91
2022/08/03 11:09:08;;;;;;;;;;;;;;;;;;6221058;22;19973;-90
2022/08/03 11:11:34;;;;;;;;;;;;;;;;;;6222460;22;19965;-91
2022/08/03 11:14:04;;;;;;;;;;;;;;;;;;6219361;22;19990;-90
2022/08/03 11:16:30;;;;;;;;;;;;;;;;;;6224672;22;19925;-91
2022/08/03 11:18:56;;;;;;;;;;;;;;;;;;6225564;22;19961;-90
2022/08/03 11:21:22;;;;;;;;;;;;;;;;;;6225720;22;19915;-91
2022/08/03 11:23:48;;;;;;;;;;;;;;;;;;6225931;22;19934;-90
2022/08/03 11:26:25;;;;;;;;;;;;;;;;;;6226729;22;19922;-91
2022/08/03 11:28:51;;;;;;;;;;;;;;;;;;6199182;22;19911;-92
2022/08/03 11:31:23;;;;;;;;;;;;;;;;;;6246703;22;19911;-91
2022/08/03 11:36:40;;;;;;;;;;;;;;;;;;6222507;22;19949;-91
2022/08/03 11:39:06;;;;;;;;;;;;;;;;;;6225599;22;20299;-92
2022/08/03 11:41:33;;;;;;;;;;;;;;;;;;6186962;22;1244082;-93
2022/08/03 11:44:00;;;;;;;;;;;;;;;;;;6234496;22;19925;-91
2022/08/03 11:46:26;;;;;;;;;;;;;;;;;;6289372;22;19922;-91
2022/08/03 11:48:57;;;;;;;;;;;;;;;;;;6260474;22;19922;-91
2022/08/03 11:54:19;;;;;;;;;;;;;;;;;;6166222;23;19920;-91
2022/08/03 11:59:36;;;;;;;;;;;;;;;;;;6239894;22;19915;-91
2022/08/03 12:02:05;;;;;;;;;;;;;;;;;;6233186;22;19914;-92
2022/08/03 12:04:47;;;;;;;;;;;;;;;;;;6260457;22;20673;-92
2022/08/03 12:07:28;;;;;;;;;;;;;;;;;;6230963;22;19965;-92
2022/08/03 12:10:08;;;;;;;;;;;;;;;;;;6256698;22;20292;-91
2022/08/03 12:12:41;;;;;;;;;;;;;;;;;;6229744;22;19957;-90
2022/08/03 12:15:32;;;;;;;;;;;;;;;;;;;;;
2022/08/03 12:31:16;;;;;;;;;;;;;;;;;;;;;
2022/08/03 12:40:47;;;;;;;;;;;;;;;;;;5911334;24;19923;-91
2022/08/03 12:50:21;;;;;;;;;;;;;;;;;;;;;
2022/08/03 13:25:02;;;;;;;;;;;;;;;;;;;;;
2022/08/03 13:27:49;;;;;;;;;;;;;;;;;;;;;
2022/08/03 13:36:26;;;;;;;;;;;;;;;;;;5666231;25;20001;-92
2022/08/03 13:39:02;;;;;;;;;;;;;;;;;;;;;
2022/08/03 13:41:34;;;;;;;;;;;;;;;;;;5874297;24;19924;-91
2022/08/03 13:44:28;;;;;;;;;;;;;;;;;;5951597;23;20108;-92
2022/08/03 13:46:54;;;;;;;;;;;;;;;;;;5993832;23;20015;-92
2022/08/03 13:49:21;;;;;;;;;;;;;;;;;;5968752;23;19921;-92
2022/08/03 13:51:47;;;;;;;;;;;;;;;;;;6157817;23;19958;-91
2022/08/03 13:54:13;;;;;;;;;;;;;;;;;;6219011;23;20340;-92
2022/08/03 13:56:39;;;;;;;;;;;;;;;;;;6222051;23;20202;-91
2022/08/03 13:59:05;;;;;;;;;;;;;;;;;;6219232;23;19911;-92
2022/08/03 14:01:31;;;;;;;;;;;;;;;;;;6191627;22;20103;-92
2022/08/03 14:03:57;;;;;;;;;;;;;;;;;;6224893;22;19947;-91
2022/08/03 14:06:23;;;;;;;;;;;;;;;;;;6230183;22;19911;-90
2022/08/03 14:08:49;;;;;;;;;;;;;;;;;;6256553;22;20666;-91
2022/08/03 14:11:15;;;;;;;;;;;;;;;;;;6225544;22;20073;-91
2022/08/03 14:13:41;;;;;;;;;;;;;;;;;;6228191;22;19926;-91
2022/08/03 14:16:07;;;;;;;;;;;;;;;;;;6253576;22;19911;-91
2022/08/03 14:18:34;;;;;;;;;;;;;;;;;;6201494;22;19919;-91
2022/08/03 14:21:00;;;;;;;;;;;;;;;;;;6198518;22;19922;-91
2022/08/03 14:23:26;;;;;;;;;;;;;;;;;;6201129;22;19910;-90
2022/08/03 14:25:52;;;;;;;;;;;;;;;;;;6201825;22;19989;-91
2022/08/03 14:28:19;;;;;;;;;;;;;;;;;;6221879;22;20497;-90
2022/08/03 14:30:46;;;;;;;;;;;;;;;;;;6202037;22;19990;-91
2022/08/03 14:33:12;;;;;;;;;;;;;;;;;;6253736;22;19921;-90
2022/08/03 14:35:38;;;;;;;;;;;;;;;;;;6225508;22;19911;-92
2022/08/03 14:38:05;;;;;;;;;;;;;;;;;;6200441;22;19968;-92
2022/08/03 14:40:50;;;;;;;;;;;;;;;;;;6123068;23;20405;-91
2022/08/03 14:43:21;;;;;;;;;;;;;;;;;;6109054;23;19947;-90
2022/08/03 14:45:50;;;;;;;;;;;;;;;;;;6138701;23;20436;-90
2022/08/03 14:48:16;;;;;;;;;;;;;;;;;;6109113;23;20324;-90
2022/08/03 14:50:42;;;;;;;;;;;;;;;;;;6114566;23;19916;-91
2022/08/03 14:53:08;;;;;;;;;;;;;;;;;;6112054;23;19920;-91
2022/08/03 14:55:34;;;;;;;;;;;;;;;;;;6115236;23;20400;-92
2022/08/03 14:58:04;;;;;;;;;;;;;;;;;;6110590;23;20136;-92
2022/08/03 15:00:30;;;;;;;;;;;;;;;;;;6137002;23;19923;-92
2022/08/03 15:02:56;;;;;;;;;;;;;;;;;;6115443;23;19920;-92
2022/08/03 15:05:24;;;;;;;;;;;;;;;;;;6135951;23;19926;-92
2022/08/03 15:07:50;;;;;;;;;;;;;;;;;;6115996;23;19919;-92
2022/08/03 15:10:17;;;;;;;;;;;;;;;;;;6113552;23;20513;-91
2022/08/03 15:12:43;;;;;;;;;;;;;;;;;;6194582;22;19911;-91
2022/08/03 15:15:09;;;;;;;;;;;;;;;;;;6229821;22;20362;-91
2022/08/03 15:17:35;;;;;;;;;;;;;;;;;;6232216;22;20594;-92
2022/08/03 15:20:01;;;;;;;;;;;;;;;;;;6254266;22;19914;-92
2022/08/03 15:22:27;;;;;;;;;;;;;;;;;;6255348;22;19986;-92
2022/08/03 15:24:55;;;;;;;;;;;;;;;;;;6256388;22;19959;-92
2022/08/03 15:27:21;;;;;;;;;;;;;;;;;;6252675;22;19993;-92
2022/08/03 15:29:48;;;;;;;;;;;;;;;;;;6256152;22;19918;-93
2022/08/03 15:32:14;;;;;;;;;;;;;;;;;;6253036;22;19915;-92
2022/08/03 15:34:40;;;;;;;;;;;;;;;;;;6230403;22;19926;-92
2022/08/03 15:37:06;;;;;;;;;;;;;;;;;;6231764;22;19919;-92
2022/08/03 15:39:32;;;;;;;;;;;;;;;;;;6232196;22;19919;-90
2022/08/03 15:41:58;;;;;;;;;;;;;;;;;;6254741;22;19973;-92
2022/08/03 15:44:24;;;;;;;;;;;;;;;;;;6233827;22;19922;-92
2022/08/03 15:46:49;;;;;;;;;;;;;;;;;;6232906;22;19919;-92
2022/08/03 15:49:16;;;;;;;;;;;;;;;;;;6230227;22;19911;-91
2022/08/03 15:51:42;;;;;;;;;;;;;;;;;;6230542;22;20322;-91
2022/08/03 15:54:08;;;;;;;;;;;;;;;;;;6230069;22;20153;-91
2022/08/03 15:56:34;;;;;;;;;;;;;;;;;;6231136;22;19946;-91
2022/08/03 15:59:00;;;;;;;;;;;;;;;;;;6228012;22;20354;-92
2022/08/03 16:01:26;;;;;;;;;;;;;;;;;;6233573;22;20340;-91
2022/08/03 16:03:52;;;;;;;;;;;;;;;;;;6240863;22;19918;-92
2022/08/03 16:06:18;;;;;;;;;;;;;;;;;;6239324;22;20365;-92
2022/08/03 16:08:44;;;;;;;;;;;;;;;;;;6265926;22;19918;-92
2022/08/03 16:11:10;;;;;;;;;;;;;;;;;;6230380;22;19915;-92
2022/08/03 16:13:36;;;;;;;;;;;;;;;;;;6233173;22;20358;-92
2022/08/03 16:16:05;;;;;;;;;;;;;;;;;;6236153;22;19926;-92
2022/08/03 16:18:31;;;;;;;;;;;;;;;;;;6240368;22;19914;-91
2022/08/03 16:20:57;;;;;;;;;;;;;;;;;;6214775;22;20565;-91
2022/08/03 16:23:36;;;;;;;;;;;;;;;;;;6233603;22;19915;-92
2022/08/03 16:26:05;;;;;;;;;;;;;;;;;;6202936;22;19914;-91
2022/08/03 16:28:32;;;;;;;;;;;;;;;;;;6205493;22;19915;-92
2022/08/03 16:30:58;;;;;;;;;;;;;;;;;;6205436;22;20225;-91
2022/08/03 16:33:25;;;;;;;;;;;;;;;;;;6232455;22;19922;-91
2022/08/03 16:35:51;;;;;;;;;;;;;;;;;;6259690;22;19915;-91
2022/08/03 16:38:16;;;;;;;;;;;;;;;;;;6255643;22;20540;-91
2022/08/03 16:40:43;;;;;;;;;;;;;;;;;;6235109;22;19923;-92
2022/08/03 16:43:09;;;;;;;;;;;;;;;;;;6232294;22;19919;-91
2022/08/03 16:45:35;;;;;;;;;;;;;;;;;;6233517;22;19911;-91
2022/08/03 16:48:01;;;;;;;;;;;;;;;;;;6231172;22;20128;-91
2022/08/03 16:50:27;;;;;;;;;;;;;;;;;;6235831;22;19978;-91
2022/08/03 16:52:53;;;;;;;;;;;;;;;;;;6235053;22;19915;-91
2022/08/03 16:55:19;;;;;;;;;;;;;;;;;;6234569;22;20229;-92
2022/08/03 16:57:49;;;;;;;;;;;;;;;;;;6236952;22;19997;-91
2022/08/03 17:00:25;;;;;;;;;;;;;;;;;;6231315;22;20088;-92
2022/08/03 17:02:51;;;;;;;;;;;;;;;;;;6231791;22;19942;-92
2022/08/03 17:05:20;;;;;;;;;;;;;;;;;;6230920;22;19989;-92
2022/08/03 17:07:51;;;;;;;;;;;;;;;;;;6237800;22;19973;-86
2022/08/03 17:10:19;;;;;;;;;;;;;;;;;;6232607;22;19925;-92
2022/08/03 17:12:52;;;;;;;;;;;;;;;;;;6231392;22;19977;-92
2022/08/03 17:15:18;;;;;;;;;;;;;;;;;;6229595;22;19915;-93
2022/08/03 17:17:44;;;;;;;;;;;;;;;;;;6235732;22;19919;-92
2022/08/03 17:20:11;;;;;;;;;;;;;;;;;;6232522;22;19990;-92
2022/08/03 17:22:37;;;;;;;;;;;;;;;;;;6234034;22;20481;-91
2022/08/03 17:25:06;;;;;;;;;;;;;;;;;;6231890;22;19915;-92
2022/08/03 17:27:32;;;;;;;;;;;;;;;;;;6237969;22;19914;-91
2022/08/03 17:30:02;;;;;;;;;;;;;;;;;;6233245;22;20316;-91
2022/08/03 17:32:28;;;;;;;;;;;;;;;;;;6237257;22;19911;-91
2022/08/03 17:34:57;;;;;;;;;;;;;;;;;;6235435;22;19922;-92
2022/08/03 17:37:26;;;;;;;;;;;;;;;;;;6236038;22;20341;-92
2022/08/03 17:39:53;;;;;;;;;;;;;;;;;;6236940;22;19915;-92
2022/08/03 17:42:19;;;;;;;;;;;;;;;;;;6212491;22;20288;-92
2022/08/03 17:44:51;;;;;;;;;;;;;;;;;;6214924;22;20311;-91
2022/08/03 17:47:18;;;;;;;;;;;;;;;;;;6209745;22;19915;-92
2022/08/03 17:49:46;;;;;;;;;;;;;;;;;;6209509;22;19915;-92
2022/08/03 17:52:12;;;;;;;;;;;;;;;;;;6204983;22;19915;-92
2022/08/03 17:54:39;;;;;;;;;;;;;;;;;;6209433;22;19989;-93
2022/08/03 17:57:06;;;;;;;;;;;;;;;;;;6205484;22;19923;-93
2022/08/03 17:59:39;;;;;;;;;;;;;;;;;;6262159;22;19969;-92
2022/08/03 18:04:53;;;;;;;;;;;;;;;;;;6231605;22;20394;-91
2022/08/03 18:07:19;;;;;;;;;;;;;;;;;;6254431;22;19969;-92
2022/08/03 18:10:03;;;;;;;;;;;;;;;;;;6208662;22;19915;-91
2022/08/03 18:12:29;;;;;;;;;;;;;;;;;;6231741;22;19919;-91
2022/08/03 18:14:55;;;;;;;;;;;;;;;;;;6207661;22;20009;-92
2022/08/03 18:17:21;;;;;;;;;;;;;;;;;;6229964;22;20346;-92
2022/08/03 18:19:47;;;;;;;;;;;;;;;;;;6208950;22;20311;-91
2022/08/03 18:22:13;;;;;;;;;;;;;;;;;;6258289;22;19993;-92
2022/08/03 18:24:39;;;;;;;;;;;;;;;;;;6209753;22;19977;-92
2022/08/03 18:27:06;;;;;;;;;;;;;;;;;;6207858;22;20244;-92
2022/08/03 18:29:34;;;;;;;;;;;;;;;;;;6209628;22;19926;-91
2022/08/03 18:32:00;;;;;;;;;;;;;;;;;;6206676;22;20014;-90
2022/08/03 18:34:27;;;;;;;;;;;;;;;;;;6207488;22;19911;-91
2022/08/03 18:36:54;;;;;;;;;;;;;;;;;;6207371;22;20343;-91
2022/08/03 18:39:25;;;;;;;;;;;;;;;;;;6205442;22;20018;-91
2022/08/03 18:41:51;;;;;;;;;;;;;;;;;;6228664;22;20013;-91